Mexico V — XCKR — position and weather

sailwx.info

Track history (hours):
 
Tides and Currents Weather Stations Pressure Air Temp Water Temp Dewpoint Dewpoint Depression Visibility Wind Speed Wind Dir Waves Ship Positions

Mexico V

Last reported at 2017-Aug-21 21:31 UTC. Time now 2017-Aug-21 21:49 UTC.
Position N 20°31' W 086°57'.

Length 40 m; draft 1.5 m.

Type: Ship. MMSI: 345110005.

Date/timePositionNaut miles runAvg speedWind from/ knotsBaromVisibWave heightAir tempDewpointWater temp
2017-Aug-21 21:31N 20°31' W 086°57'0 0.0
2017-Aug-21 21:01N 20°31' W 086°57'3 5.5
2017-Aug-21 20:30N 20°33' W 086°59'1 0.7
2017-Aug-21 19:14N 20°32' W 086°58'2 8.3
2017-Aug-21 19:01N 20°31' W 086°57'2 1.2
2017-Aug-21 17:19N 20°32' W 086°59'2 6.4
2017-Aug-21 17:00N 20°31' W 086°57'2 0.9
2017-Aug-21 15:13N 20°31' W 086°58'2 7.5
2017-Aug-21 15:00N 20°31' W 086°57'2 1.2
2017-Aug-21 13:15N 20°32' W 086°59'2 8.3
2017-Aug-21 13:00N 20°31' W 086°57'0 0.1
2017-Aug-21 12:29N 20°31' W 086°57'0 0.0
2017-Aug-21 12:00N 20°31' W 086°57'0 0.0
2017-Aug-21 02:03N 20°31' W 086°57'0 0.5
2017-Aug-21 02:00N 20°31' W 086°57'2 0.9
2017-Aug-21 00:16N 20°32' W 086°58'2 6.4
2017-Aug-21 00:00N 20°31' W 086°57'0 0.0
2017-Aug-20 23:30N 20°31' W 086°57'0 0.0
2017-Aug-20 23:00N 20°31' W 086°57'0 0.0
2017-Aug-20 22:30N 20°31' W 086°57'0 0.0
2017-Aug-20 22:00N 20°31' W 086°57'0 0.0
2017-Aug-20 21:30N 20°31' W 086°57'0 0.0
2017-Aug-20 21:00N 20°31' W 086°57'2 1.3
2017-Aug-20 19:18N 20°32' W 086°59'2 7.5
2017-Aug-20 19:00N 20°31' W 086°57'2 1.4
2017-Aug-20 17:18N 20°32' W 086°59'2 7.8
2017-Aug-20 17:00N 20°31' W 086°57'2 1.2
2017-Aug-20 15:20N 20°32' W 086°59'2 6.0
2017-Aug-20 15:00N 20°31' W 086°57'2 1.3
2017-Aug-20 13:17N 20°32' W 086°59'2 7.9
2017-Aug-20 13:00N 20°31' W 086°57'0 0.1
2017-Aug-20 12:30N 20°31' W 086°57'0 0.0
2017-Aug-20 01:47N 20°31' W 086°57'2 8.0
2017-Aug-20 01:31N 20°32' W 086°59'0 0.4
2017-Aug-20 00:16N 20°32' W 086°59'2 8.0
2017-Aug-20 00:01N 20°31' W 086°57'2 1.3
2017-Aug-19 22:17N 20°32' W 086°59'2 8.4
2017-Aug-19 22:00N 20°31' W 086°57'0 0.0
2017-Aug-19 21:30N 20°31' W 086°57'0 0.0
2017-Aug-19 21:00N 20°31' W 086°57'2 1.4
2017-Aug-19 19:15N 20°32' W 086°59'2 9.5
2017-Aug-19 19:00N 20°31' W 086°57'2 1.1
2017-Aug-19 17:18N 20°32' W 086°59'2 6.5
2017-Aug-19 17:00N 20°31' W 086°57'2 1.0
2017-Aug-19 15:13N 20°32' W 086°58'2 8.4
2017-Aug-19 15:00N 20°31' W 086°57'2 1.3
2017-Aug-19 13:17N 20°32' W 086°59'2 8.2
2017-Aug-19 13:01N 20°31' W 086°57'0 0.1
2017-Aug-19 12:30N 20°31' W 086°57'0 0.0
2017-Aug-19 12:01N 20°31' W 086°57'0 0.0
2017-Aug-19 01:57N 20°31' W 086°57'3 6.4
2017-Aug-19 01:31N 20°33' W 086°59'1 0.6
2017-Aug-19 00:16N 20°32' W 086°59'2 8.2
2017-Aug-19 00:00N 20°31' W 086°57'2 1.3
2017-Aug-18 22:18N 20°32' W 086°59'2 7.5
2017-Aug-18 22:01N 20°31' W 086°57'1 0.7
2017-Aug-18 19:58N 20°32' W 086°58'2 3.2
2017-Aug-18 19:31N 20°30' W 086°57'3 5.4
2017-Aug-18 19:00N 20°33' W 086°59'0 0.3
2017-Aug-18 17:20N 20°32' W 086°59'2 6.6
2017-Aug-18 17:00N 20°31' W 086°57'2 1.1
2017-Aug-18 15:13N 20°32' W 086°59'2 8.9
2017-Aug-18 15:00N 20°31' W 086°57'1 0.7
2017-Aug-18 12:49N 20°32' W 086°58'1 1.4
2017-Aug-18 11:56N 20°31' W 086°57'0 0.9
2017-Aug-18 11:30N 20°31' W 086°57'0 0.0
2017-Aug-18 01:58N 20°31' W 086°57'2 4.1
2017-Aug-18 01:30N 20°32' W 086°58'0 0.0
2017-Aug-18 00:13N 20°32' W 086°58'2 3.2
2017-Aug-17 23:38N 20°31' W 086°57'215.6
2017-Aug-17 23:30N 20°32' W 086°59'1 0.7
2017-Aug-17 22:17N 20°32' W 086°59'2 6.9
2017-Aug-17 21:56N 20°31' W 086°57'0 0.0
2017-Aug-17 21:28N 20°31' W 086°57'2 4.4
2017-Aug-17 21:00N 20°29' W 086°58'3 1.6
2017-Aug-17 19:12N 20°32' W 086°59'2 9.2
2017-Aug-17 18:59N 20°31' W 086°57'3 1.6
2017-Aug-17 17:20N 20°33' W 086°59'3 4.3
2017-Aug-17 16:44N 20°31' W 086°57'2 1.3
2017-Aug-17 15:14N 20°32' W 086°59'2 4.2
2017-Aug-17 14:46N 20°31' W 086°57'2 1.1
2017-Aug-17 12:46N 20°30' W 086°59'1 4.8
2017-Aug-17 12:30N 20°29' W 086°59'0 0.0
2017-Aug-17 12:00N 20°29' W 086°59'2 4.8
2017-Aug-17 11:30N 20°31' W 086°57'0 0.0
2017-Aug-17 11:00N 20°31' W 086°57'0 0.0
2017-Aug-17 01:42N 20°31' W 086°57'2 1.5
2017-Aug-17 00:15N 20°32' W 086°59'2 3.7
2017-Aug-16 23:41N 20°31' W 086°57'2 1.2
2017-Aug-16 22:11N 20°32' W 086°58'2 3.7
2017-Aug-16 21:43N 20°31' W 086°57'3 1.7
2017-Aug-16 20:14N 20°33' W 086°59'3 5.1
2017-Aug-16 19:44N 20°31' W 086°57'2 1.0
2017-Aug-16 18:15N 20°32' W 086°58'2 3.8
2017-Aug-16 17:51N 20°31' W 086°57'2 1.3
2017-Aug-16 16:13N 20°32' W 086°59'2 4.9
2017-Aug-16 15:48N 20°31' W 086°57'2 1.2
2017-Aug-16 14:14N 20°32' W 086°59'2 1.8
2017-Aug-16 13:12N 20°31' W 086°57'0 0.9
2017-Aug-16 13:00N 20°31' W 086°57'0 0.4
2017-Aug-16 12:30N 20°31' W 086°57'0 0.0
2017-Aug-16 12:00N 20°31' W 086°57'0 0.0
2017-Aug-16 02:13N 20°31' W 086°57'0 0.1
2017-Aug-16 01:56N 20°31' W 086°57'2 1.3
2017-Aug-16 00:15N 20°32' W 086°59'2 8.5
2017-Aug-15 23:59N 20°31' W 086°57'1 2.9
2017-Aug-15 23:30N 20°32' W 086°58'1 0.6
2017-Aug-15 22:14N 20°32' W 086°59'2 1.5
2017-Aug-15 20:44N 20°31' W 086°57'2 1.6
2017-Aug-15 19:15N 20°32' W 086°59'2 7.5
2017-Aug-15 18:56N 20°31' W 086°57'2 1.2
2017-Aug-15 17:14N 20°32' W 086°59'2 4.0
2017-Aug-15 16:43N 20°31' W 086°57'2 1.4
2017-Aug-15 15:14N 20°32' W 086°58'2 4.1
2017-Aug-15 14:44N 20°31' W 086°57'2 1.3
2017-Aug-15 13:17N 20°32' W 086°58'2 3.7
2017-Aug-15 12:45N 20°31' W 086°57'0 0.1
2017-Aug-15 12:30N 20°31' W 086°57'0 0.0
2017-Aug-15 12:00N 20°31' W 086°57'0 0.0
2017-Aug-15 01:38N 20°31' W 086°57'216.4
2017-Aug-15 01:30N 20°32' W 086°59'0 0.2
2017-Aug-15 00:16N 20°32' W 086°59'2 3.7
2017-Aug-14 23:42N 20°31' W 086°57'2 1.3
2017-Aug-14 22:13N 20°32' W 086°58'2 4.0
2017-Aug-14 21:43N 20°31' W 086°57'3 1.7
2017-Aug-14 20:14N 20°33' W 086°59'3 1.8
2017-Aug-14 18:49N 20°31' W 086°57'2 1.5
2017-Aug-14 17:16N 20°32' W 086°59'2 4.6
2017-Aug-14 16:46N 20°31' W 086°57'2 1.5
2017-Aug-14 15:14N 20°32' W 086°59'2 8.8
2017-Aug-14 14:59N 20°31' W 086°57'3 6.5
2017-Aug-14 14:30N 20°33' W 086°59'0 0.2
2017-Aug-14 13:19N 20°33' W 086°59'3 4.4
2017-Aug-14 12:40N 20°31' W 086°57'0 0.2
2017-Aug-14 12:31N 20°31' W 086°57'0 0.0
2017-Aug-14 01:40N 20°31' W 086°57'212.8
2017-Aug-14 01:30N 20°32' W 086°58'0 0.1
2017-Aug-14 00:17N 20°32' W 086°59'2 3.6
2017-Aug-13 23:42N 20°31' W 086°57'315.4
2017-Aug-13 23:30N 20°33' W 086°59'1 0.7
2017-Aug-13 22:14N 20°32' W 086°59'2 8.7
2017-Aug-13 22:00N 20°31' W 086°57'0 0.0
2017-Aug-13 21:30N 20°31' W 086°57'0 0.0
2017-Aug-13 20:51N 20°31' W 086°57'2 1.3
2017-Aug-13 19:17N 20°32' W 086°59'2 7.5
2017-Aug-13 19:00N 20°31' W 086°57'3 5.7
2017-Aug-13 18:30N 20°33' W 086°59'0 0.3
2017-Aug-13 17:22N 20°33' W 086°59'3 4.2
2017-Aug-13 16:45N 20°31' W 086°57'2 1.2
2017-Aug-13 15:14N 20°32' W 086°58'2 5.5
2017-Aug-13 14:54N 20°31' W 086°57'3 7.3
2017-Aug-13 14:30N 20°33' W 086°59'0 0.3
2017-Aug-13 13:17N 20°33' W 086°59'3 3.8
2017-Aug-13 12:37N 20°31' W 086°57'0 0.7
2017-Aug-13 12:30N 20°31' W 086°57'0 0.1
2017-Aug-13 12:00N 20°31' W 086°57'0 0.0
2017-Aug-13 01:47N 20°31' W 086°57'3 1.8
2017-Aug-13 00:19N 20°33' W 086°59'3 4.3
2017-Aug-12 23:43N 20°31' W 086°57'2 1.5
2017-Aug-12 22:14N 20°32' W 086°59'2 4.0
2017-Aug-12 21:42N 20°31' W 086°57'0 0.3
2017-Aug-12 21:30N 20°31' W 086°57'0 0.2
2017-Aug-12 21:00N 20°31' W 086°57'2 1.2
2017-Aug-12 19:16N 20°32' W 086°59'2 3.7
2017-Aug-12 18:43N 20°31' W 086°57'2 1.6
2017-Aug-12 17:20N 20°32' W 086°59'2 4.7
2017-Aug-12 16:52N 20°31' W 086°57'2 1.5
2017-Aug-12 15:16N 20°32' W 086°59'2 4.2
2017-Aug-12 14:42N 20°31' W 086°57'3 1.8
2017-Aug-12 13:17N 20°32' W 086°59'3 3.9
2017-Aug-12 12:37N 20°31' W 086°57'0 0.5
2017-Aug-12 12:30N 20°31' W 086°57'0 0.1
2017-Aug-12 12:00N 20°31' W 086°57'0 0.0
2017-Aug-12 01:52N 20°31' W 086°57'2 6.3
2017-Aug-12 01:31N 20°32' W 086°59'0 0.2
2017-Aug-12 00:17N 20°32' W 086°59'2 4.4
2017-Aug-11 23:45N 20°31' W 086°57'2 1.2
2017-Aug-11 22:13N 20°32' W 086°59'2 9.0
2017-Aug-11 22:00N 20°31' W 086°57'  
Track history (hours):
 
Tides and Currents Weather Stations Pressure Air Temp Water Temp Dewpoint Dewpoint Depression Visibility Wind Speed Wind Dir Waves Ship Positions

Mexico V

Last reported at 2017-Aug-21 21:31 UTC. Time now 2017-Aug-21 21:49 UTC.
Position N 20°31' W 086°57'.

Length 40 m; draft 1.5 m.

Type: Ship. MMSI: 345110005.

Date/timePositionNaut miles runAvg speedWind from/ knotsBaromVisibWave heightAir tempDewpointWater temp
2017-Aug-21 21:31N 20°31' W 086°57'0 0.0
2017-Aug-21 21:01N 20°31' W 086°57'3 5.5
2017-Aug-21 20:30N 20°33' W 086°59'1 0.7
2017-Aug-21 19:14N 20°32' W 086°58'2 8.3
2017-Aug-21 19:01N 20°31' W 086°57'2 1.2
2017-Aug-21 17:19N 20°32' W 086°59'2 6.4
2017-Aug-21 17:00N 20°31' W 086°57'2 0.9
2017-Aug-21 15:13N 20°31' W 086°58'2 7.5
2017-Aug-21 15:00N 20°31' W 086°57'2 1.2
2017-Aug-21 13:15N 20°32' W 086°59'2 8.3
2017-Aug-21 13:00N 20°31' W 086°57'0 0.1
2017-Aug-21 12:29N 20°31' W 086°57'0 0.0
2017-Aug-21 12:00N 20°31' W 086°57'0 0.0
2017-Aug-21 02:03N 20°31' W 086°57'0 0.5
2017-Aug-21 02:00N 20°31' W 086°57'2 0.9
2017-Aug-21 00:16N 20°32' W 086°58'2 6.4
2017-Aug-21 00:00N 20°31' W 086°57'0 0.0
2017-Aug-20 23:30N 20°31' W 086°57'0 0.0
2017-Aug-20 23:00N 20°31' W 086°57'0 0.0
2017-Aug-20 22:30N 20°31' W 086°57'0 0.0
2017-Aug-20 22:00N 20°31' W 086°57'0 0.0
2017-Aug-20 21:30N 20°31' W 086°57'0 0.0
2017-Aug-20 21:00N 20°31' W 086°57'2 1.3
2017-Aug-20 19:18N 20°32' W 086°59'2 7.5
2017-Aug-20 19:00N 20°31' W 086°57'2 1.4
2017-Aug-20 17:18N 20°32' W 086°59'2 7.8
2017-Aug-20 17:00N 20°31' W 086°57'2 1.2
2017-Aug-20 15:20N 20°32' W 086°59'2 6.0
2017-Aug-20 15:00N 20°31' W 086°57'2 1.3
2017-Aug-20 13:17N 20°32' W 086°59'2 7.9
2017-Aug-20 13:00N 20°31' W 086°57'0 0.1
2017-Aug-20 12:30N 20°31' W 086°57'0 0.0
2017-Aug-20 01:47N 20°31' W 086°57'2 8.0
2017-Aug-20 01:31N 20°32' W 086°59'0 0.4
2017-Aug-20 00:16N 20°32' W 086°59'2 8.0
2017-Aug-20 00:01N 20°31' W 086°57'2 1.3
2017-Aug-19 22:17N 20°32' W 086°59'2 8.4
2017-Aug-19 22:00N 20°31' W 086°57'0 0.0
2017-Aug-19 21:30N 20°31' W 086°57'0 0.0
2017-Aug-19 21:00N 20°31' W 086°57'2 1.4
2017-Aug-19 19:15N 20°32' W 086°59'2 9.5
2017-Aug-19 19:00N 20°31' W 086°57'2 1.1
2017-Aug-19 17:18N 20°32' W 086°59'2 6.5
2017-Aug-19 17:00N 20°31' W 086°57'2 1.0
2017-Aug-19 15:13N 20°32' W 086°58'2 8.4
2017-Aug-19 15:00N 20°31' W 086°57'2 1.3
2017-Aug-19 13:17N 20°32' W 086°59'2 8.2
2017-Aug-19 13:01N 20°31' W 086°57'0 0.1
2017-Aug-19 12:30N 20°31' W 086°57'0 0.0
2017-Aug-19 12:01N 20°31' W 086°57'0 0.0
2017-Aug-19 01:57N 20°31' W 086°57'3 6.4
2017-Aug-19 01:31N 20°33' W 086°59'1 0.6
2017-Aug-19 00:16N 20°32' W 086°59'2 8.2
2017-Aug-19 00:00N 20°31' W 086°57'2 1.3
2017-Aug-18 22:18N 20°32' W 086°59'2 7.5
2017-Aug-18 22:01N 20°31' W 086°57'1 0.7
2017-Aug-18 19:58N 20°32' W 086°58'2 3.2
2017-Aug-18 19:31N 20°30' W 086°57'3 5.4
2017-Aug-18 19:00N 20°33' W 086°59'0 0.3
2017-Aug-18 17:20N 20°32' W 086°59'2 6.6
2017-Aug-18 17:00N 20°31' W 086°57'2 1.1
2017-Aug-18 15:13N 20°32' W 086°59'2 8.9
2017-Aug-18 15:00N 20°31' W 086°57'1 0.7
2017-Aug-18 12:49N 20°32' W 086°58'1 1.4
2017-Aug-18 11:56N 20°31' W 086°57'0 0.9
2017-Aug-18 11:30N 20°31' W 086°57'0 0.0
2017-Aug-18 01:58N 20°31' W 086°57'2 4.1
2017-Aug-18 01:30N 20°32' W 086°58'0 0.0
2017-Aug-18 00:13N 20°32' W 086°58'2 3.2
2017-Aug-17 23:38N 20°31' W 086°57'215.6
2017-Aug-17 23:30N 20°32' W 086°59'1 0.7
2017-Aug-17 22:17N 20°32' W 086°59'2 6.9
2017-Aug-17 21:56N 20°31' W 086°57'0 0.0
2017-Aug-17 21:28N 20°31' W 086°57'2 4.4
2017-Aug-17 21:00N 20°29' W 086°58'3 1.6
2017-Aug-17 19:12N 20°32' W 086°59'2 9.2
2017-Aug-17 18:59N 20°31' W 086°57'3 1.6
2017-Aug-17 17:20N 20°33' W 086°59'3 4.3
2017-Aug-17 16:44N 20°31' W 086°57'2 1.3
2017-Aug-17 15:14N 20°32' W 086°59'2 4.2
2017-Aug-17 14:46N 20°31' W 086°57'2 1.1
2017-Aug-17 12:46N 20°30' W 086°59'1 4.8
2017-Aug-17 12:30N 20°29' W 086°59'0 0.0
2017-Aug-17 12:00N 20°29' W 086°59'2 4.8
2017-Aug-17 11:30N 20°31' W 086°57'0 0.0
2017-Aug-17 11:00N 20°31' W 086°57'0 0.0
2017-Aug-17 01:42N 20°31' W 086°57'2 1.5
2017-Aug-17 00:15N 20°32' W 086°59'2 3.7
2017-Aug-16 23:41N 20°31' W 086°57'2 1.2
2017-Aug-16 22:11N 20°32' W 086°58'2 3.7
2017-Aug-16 21:43N 20°31' W 086°57'3 1.7
2017-Aug-16 20:14N 20°33' W 086°59'3 5.1
2017-Aug-16 19:44N 20°31' W 086°57'2 1.0
2017-Aug-16 18:15N 20°32' W 086°58'2 3.8
2017-Aug-16 17:51N 20°31' W 086°57'2 1.3
2017-Aug-16 16:13N 20°32' W 086°59'2 4.9
2017-Aug-16 15:48N 20°31' W 086°57'2 1.2
2017-Aug-16 14:14N 20°32' W 086°59'2 1.8
2017-Aug-16 13:12N 20°31' W 086°57'0 0.9
2017-Aug-16 13:00N 20°31' W 086°57'0 0.4
2017-Aug-16 12:30N 20°31' W 086°57'0 0.0
2017-Aug-16 12:00N 20°31' W 086°57'0 0.0
2017-Aug-16 02:13N 20°31' W 086°57'0 0.1
2017-Aug-16 01:56N 20°31' W 086°57'2 1.3
2017-Aug-16 00:15N 20°32' W 086°59'2 8.5
2017-Aug-15 23:59N 20°31' W 086°57'1 2.9
2017-Aug-15 23:30N 20°32' W 086°58'1 0.6
2017-Aug-15 22:14N 20°32' W 086°59'2 1.5
2017-Aug-15 20:44N 20°31' W 086°57'2 1.6
2017-Aug-15 19:15N 20°32' W 086°59'2 7.5
2017-Aug-15 18:56N 20°31' W 086°57'2 1.2
2017-Aug-15 17:14N 20°32' W 086°59'2 4.0
2017-Aug-15 16:43N 20°31' W 086°57'2 1.4
2017-Aug-15 15:14N 20°32' W 086°58'2 4.1
2017-Aug-15 14:44N 20°31' W 086°57'2 1.3
2017-Aug-15 13:17N 20°32' W 086°58'2 3.7
2017-Aug-15 12:45N 20°31' W 086°57'0 0.1
2017-Aug-15 12:30N 20°31' W 086°57'0 0.0
2017-Aug-15 12:00N 20°31' W 086°57'0 0.0
2017-Aug-15 01:38N 20°31' W 086°57'216.4
2017-Aug-15 01:30N 20°32' W 086°59'0 0.2
2017-Aug-15 00:16N 20°32' W 086°59'2 3.7
2017-Aug-14 23:42N 20°31' W 086°57'2 1.3
2017-Aug-14 22:13N 20°32' W 086°58'2 4.0
2017-Aug-14 21:43N 20°31' W 086°57'3 1.7
2017-Aug-14 20:14N 20°33' W 086°59'3 1.8
2017-Aug-14 18:49N 20°31' W 086°57'2 1.5
2017-Aug-14 17:16N 20°32' W 086°59'2 4.6
2017-Aug-14 16:46N 20°31' W 086°57'2 1.5
2017-Aug-14 15:14N 20°32' W 086°59'2 8.8
2017-Aug-14 14:59N 20°31' W 086°57'3 6.5
2017-Aug-14 14:30N 20°33' W 086°59'0 0.2
2017-Aug-14 13:19N 20°33' W 086°59'3 4.4
2017-Aug-14 12:40N 20°31' W 086°57'0 0.2
2017-Aug-14 12:31N 20°31' W 086°57'0 0.0
2017-Aug-14 01:40N 20°31' W 086°57'212.8
2017-Aug-14 01:30N 20°32' W 086°58'0 0.1
2017-Aug-14 00:17N 20°32' W 086°59'2 3.6
2017-Aug-13 23:42N 20°31' W 086°57'315.4
2017-Aug-13 23:30N 20°33' W 086°59'1 0.7
2017-Aug-13 22:14N 20°32' W 086°59'2 8.7
2017-Aug-13 22:00N 20°31' W 086°57'0 0.0
2017-Aug-13 21:30N 20°31' W 086°57'0 0.0
2017-Aug-13 20:51N 20°31' W 086°57'2 1.3
2017-Aug-13 19:17N 20°32' W 086°59'2 7.5
2017-Aug-13 19:00N 20°31' W 086°57'3 5.7
2017-Aug-13 18:30N 20°33' W 086°59'0 0.3
2017-Aug-13 17:22N 20°33' W 086°59'3 4.2
2017-Aug-13 16:45N 20°31' W 086°57'2 1.2
2017-Aug-13 15:14N 20°32' W 086°58'2 5.5
2017-Aug-13 14:54N 20°31' W 086°57'3 7.3
2017-Aug-13 14:30N 20°33' W 086°59'0 0.3
2017-Aug-13 13:17N 20°33' W 086°59'3 3.8
2017-Aug-13 12:37N 20°31' W 086°57'0 0.7
2017-Aug-13 12:30N 20°31' W 086°57'0 0.1
2017-Aug-13 12:00N 20°31' W 086°57'0 0.0
2017-Aug-13 01:47N 20°31' W 086°57'3 1.8
2017-Aug-13 00:19N 20°33' W 086°59'3 4.3
2017-Aug-12 23:43N 20°31' W 086°57'2 1.5
2017-Aug-12 22:14N 20°32' W 086°59'2 4.0
2017-Aug-12 21:42N 20°31' W 086°57'0 0.3
2017-Aug-12 21:30N 20°31' W 086°57'0 0.2
2017-Aug-12 21:00N 20°31' W 086°57'2 1.2
2017-Aug-12 19:16N 20°32' W 086°59'2 3.7
2017-Aug-12 18:43N 20°31' W 086°57'2 1.6
2017-Aug-12 17:20N 20°32' W 086°59'2 4.7
2017-Aug-12 16:52N 20°31' W 086°57'2 1.5
2017-Aug-12 15:16N 20°32' W 086°59'2 4.2
2017-Aug-12 14:42N 20°31' W 086°57'3 1.8
2017-Aug-12 13:17N 20°32' W 086°59'3 3.9
2017-Aug-12 12:37N 20°31' W 086°57'0 0.5
2017-Aug-12 12:30N 20°31' W 086°57'0 0.1
2017-Aug-12 12:00N 20°31' W 086°57'0 0.0
2017-Aug-12 01:52N 20°31' W 086°57'2 6.3
2017-Aug-12 01:31N 20°32' W 086°59'0 0.2
2017-Aug-12 00:17N 20°32' W 086°59'2 4.4
2017-Aug-11 23:45N 20°31' W 086°57'2 1.2
2017-Aug-11 22:13N 20°32' W 086°59'2 9.0
2017-Aug-11 22:00N 20°31' W 086°57'  

Dump ship's entire track history